CWUW

Dewar Lakes Airport

Canada
METAR CWUW 250600Z AUTO 22011KT ////SM //// OVC002 M00/M00 A2961
Observed Flight Rules
Jun-25 @ 06:00 UTC (24 minutes ago)
Wind Clouds
220° at 11 knots
  • Overcast at 200' AGL
Temperatures Readings
Current 0°C / 32°F
Dewpoint 0°C / 32°F
Humidity 100%
Altimeter 29.61" Hg
Pressure 1003 hPa
Elevation 527
METAR CWUW 250600Z AUTO 22011KT ////SM //// OVC002 M00/M00 A2961
Observed Flight Rules
Jun-25 @ 06:00 UTC
(24 minutes ago)
Wind
220° at 11 knots
Clouds
  • Overcast at 200' AGL
Temperature Dewpoint
0°C / 32°F 0°C / 32°F
Humidity Altimeter Pressure
100% 29.61" Hg 1003 hPa